Terminal Aerodrome Forecast
Issued by NWS Jackson, MS

Home | Current Version | Previous Version | Text Only | Print | Product List | Glossary On
Versions: 1 2 3 4 5 6 7 8 9 10 11 12 13
964
FTUS44 KJAN 291720
TAFMEI
TAF
KMEI 291720Z 2918/3018 34005KT P6SM SCT250
     FM301000 35001KT 4SM BR SKC
     FM301400 01005KT P6SM SKC=

USA.gov is the U.S. government's official web portal to all federal, state and local government web resources and services.